sensor_id;sensor_type;location;lat;lon;timestamp;temperature;humidity
77218;DHT22;66214;51.302;17.068;2023-12-04T00:01:29;-5.19;86.38
77218;DHT22;66214;51.302;17.068;2023-12-04T00:03:57;-5.22;86.23
77218;DHT22;66214;51.302;17.068;2023-12-04T00:06:25;-5.28;86.19
77218;DHT22;66214;51.302;17.068;2023-12-04T00:08:54;-5.34;86.11
77218;DHT22;66214;51.302;17.068;2023-12-04T00:11:22;-5.39;86.10
77218;DHT22;66214;51.302;17.068;2023-12-04T00:13:50;-5.45;86.20
77218;DHT22;66214;51.302;17.068;2023-12-04T00:16:18;-5.49;86.31
77218;DHT22;66214;51.302;17.068;2023-12-04T00:18:46;-5.53;86.52
77218;DHT22;66214;51.302;17.068;2023-12-04T00:21:14;-5.55;86.73
77218;DHT22;66214;51.302;17.068;2023-12-04T00:23:42;-5.54;86.79
77218;DHT22;66214;51.302;17.068;2023-12-04T00:26:11;-5.56;86.73
77218;DHT22;66214;51.302;17.068;2023-12-04T00:28:40;-5.59;86.62
77218;DHT22;66214;51.302;17.068;2023-12-04T00:31:08;-5.64;86.50
77218;DHT22;66214;51.302;17.068;2023-12-04T00:33:38;-5.70;86.40
77218;DHT22;66214;51.302;17.068;2023-12-04T00:36:06;-5.77;86.33
77218;DHT22;66214;51.302;17.068;2023-12-04T00:38:35;-5.86;86.18
77218;DHT22;66214;51.302;17.068;2023-12-04T00:41:03;-5.96;86.07
77218;DHT22;66214;51.302;17.068;2023-12-04T00:43:31;-6.05;86.00
77218;DHT22;66214;51.302;17.068;2023-12-04T00:45:59;-6.13;86.00
77218;DHT22;66214;51.302;17.068;2023-12-04T00:48:27;-6.19;86.11
77218;DHT22;66214;51.302;17.068;2023-12-04T00:50:57;-6.20;86.33
77218;DHT22;66214;51.302;17.068;2023-12-04T00:53:25;-6.22;86.48
77218;DHT22;66214;51.302;17.068;2023-12-04T00:55:53;-6.26;86.56
77218;DHT22;66214;51.302;17.068;2023-12-04T00:58:21;-6.27;86.64
77218;DHT22;66214;51.302;17.068;2023-12-04T01:00:49;-6.29;86.70
77218;DHT22;66214;51.302;17.068;2023-12-04T01:03:19;-6.27;86.74
77218;DHT22;66214;51.302;17.068;2023-12-04T01:05:47;-6.25;86.74
77218;DHT22;66214;51.302;17.068;2023-12-04T01:08:15;-6.23;86.66
77218;DHT22;66214;51.302;17.068;2023-12-04T01:10:43;-6.22;86.60
77218;DHT22;66214;51.302;17.068;2023-12-04T01:13:11;-6.20;86.49
77218;DHT22;66214;51.302;17.068;2023-12-04T01:15:39;-6.19;86.37
77218;DHT22;66214;51.302;17.068;2023-12-04T01:18:07;-6.18;86.21
77218;DHT22;66214;51.302;17.068;2023-12-04T01:20:35;-6.20;86.00
77218;DHT22;66214;51.302;17.068;2023-12-04T01:23:03;-6.26;85.89
77218;DHT22;66214;51.302;17.068;2023-12-04T01:25:31;-6.31;85.75
77218;DHT22;66214;51.302;17.068;2023-12-04T01:27:59;-6.38;85.69
77218;DHT22;66214;51.302;17.068;2023-12-04T01:30:27;-6.43;85.59
77218;DHT22;66214;51.302;17.068;2023-12-04T01:32:55;-6.51;85.56
77218;DHT22;66214;51.302;17.068;2023-12-04T01:35:23;-6.61;85.50
77218;DHT22;66214;51.302;17.068;2023-12-04T01:37:51;-6.70;85.50
77218;DHT22;66214;51.302;17.068;2023-12-04T01:40:19;-6.77;85.47
77218;DHT22;66214;51.302;17.068;2023-12-04T01:42:48;-6.83;85.54
77218;DHT22;66214;51.302;17.068;2023-12-04T01:45:16;-6.89;85.66
77218;DHT22;66214;51.302;17.068;2023-12-04T01:47:46;-6.93;85.79
77218;DHT22;66214;51.302;17.068;2023-12-04T01:50:14;-6.94;85.91
77218;DHT22;66214;51.302;17.068;2023-12-04T01:52:43;-6.93;86.03
77218;DHT22;66214;51.302;17.068;2023-12-04T01:55:11;-6.90;86.10
77218;DHT22;66214;51.302;17.068;2023-12-04T01:57:40;-6.87;86.11
77218;DHT22;66214;51.302;17.068;2023-12-04T02:00:09;-6.83;86.14
77218;DHT22;66214;51.302;17.068;2023-12-04T02:02:40;-6.78;86.11
77218;DHT22;66214;51.302;17.068;2023-12-04T02:05:12;-6.73;86.08
77218;DHT22;66214;51.302;17.068;2023-12-04T02:07:41;-6.70;86.07
77218;DHT22;66214;51.302;17.068;2023-12-04T02:10:09;-6.66;86.06
77218;DHT22;66214;51.302;17.068;2023-12-04T02:12:37;-6.63;86.12
77218;DHT22;66214;51.302;17.068;2023-12-04T05:03:40;-6.75;88.60
77218;DHT22;66214;51.302;17.068;2023-12-04T05:06:08;-6.74;88.36
77218;DHT22;66214;51.302;17.068;2023-12-04T05:08:37;-6.75;88.15
77218;DHT22;66214;51.302;17.068;2023-12-04T05:11:05;-6.80;87.80
77218;DHT22;66214;51.302;17.068;2023-12-04T05:13:33;-6.88;87.48
77218;DHT22;66214;51.302;17.068;2023-12-04T05:16:01;-6.98;87.30
77218;DHT22;66214;51.302;17.068;2023-12-04T05:18:29;-7.09;87.03
77218;DHT22;66214;51.302;17.068;2023-12-04T05:20:57;-7.18;86.90
77218;DHT22;66214;51.302;17.068;2023-12-04T05:23:25;-7.28;86.90
77218;DHT22;66214;51.302;17.068;2023-12-04T05:25:53;-7.34;86.94
77218;DHT22;66214;51.302;17.068;2023-12-04T05:28:21;-7.40;87.01
77218;DHT22;66214;51.302;17.068;2023-12-04T05:30:49;-7.48;87.14
77218;DHT22;66214;51.302;17.068;2023-12-04T05:33:17;-7.52;87.24
77218;DHT22;66214;51.302;17.068;2023-12-04T05:35:46;-7.54;87.31
77218;DHT22;66214;51.302;17.068;2023-12-04T05:38:15;-7.56;87.34
77218;DHT22;66214;51.302;17.068;2023-12-04T05:40:44;-7.54;87.44
77218;DHT22;66214;51.302;17.068;2023-12-04T05:43:12;-7.49;87.69
77218;DHT22;66214;51.302;17.068;2023-12-04T05:45:40;-7.44;87.72
77218;DHT22;66214;51.302;17.068;2023-12-04T05:48:08;-7.35;88.04
77218;DHT22;66214;51.302;17.068;2023-12-04T05:50:36;-7.27;87.99
77218;DHT22;66214;51.302;17.068;2023-12-04T05:53:05;-7.19;87.98
77218;DHT22;66214;51.302;17.068;2023-12-04T05:55:34;-7.14;87.92
77218;DHT22;66214;51.302;17.068;2023-12-04T05:58:02;-7.11;87.92
77218;DHT22;66214;51.302;17.068;2023-12-04T06:00:30;-7.06;87.94
77218;DHT22;66214;51.302;17.068;2023-12-04T06:02:58;-7.02;87.84
77218;DHT22;66214;51.302;17.068;2023-12-04T06:05:26;-7.02;87.74
77218;DHT22;66214;51.302;17.068;2023-12-04T06:07:55;-7.01;87.65
77218;DHT22;66214;51.302;17.068;2023-12-04T06:10:23;-7.00;87.53
77218;DHT22;66214;51.302;17.068;2023-12-04T06:12:51;-6.99;87.33
77218;DHT22;66214;51.302;17.068;2023-12-04T06:15:19;-6.98;87.18
77218;DHT22;66214;51.302;17.068;2023-12-04T06:17:47;-7.01;87.04
77218;DHT22;66214;51.302;17.068;2023-12-04T06:20:15;-7.07;87.07
77218;DHT22;66214;51.302;17.068;2023-12-04T06:22:43;-7.11;87.13
77218;DHT22;66214;51.302;17.068;2023-12-04T06:25:12;-7.12;87.28
77218;DHT22;66214;51.302;17.068;2023-12-04T06:27:41;-7.13;87.40
77218;DHT22;66214;51.302;17.068;2023-12-04T06:30:10;-7.17;87.48
77218;DHT22;66214;51.302;17.068;2023-12-04T06:32:39;-7.20;87.61
77218;DHT22;66214;51.302;17.068;2023-12-04T06:35:08;-7.26;87.77
77218;DHT22;66214;51.302;17.068;2023-12-04T06:37:38;-7.28;87.97
77218;DHT22;66214;51.302;17.068;2023-12-04T06:40:07;-7.27;88.17
77218;DHT22;66214;51.302;17.068;2023-12-04T06:42:38;-7.26;88.23
77218;DHT22;66214;51.302;17.068;2023-12-04T06:45:08;-7.27;88.29
77218;DHT22;66214;51.302;17.068;2023-12-04T06:47:37;-7.27;88.41
77218;DHT22;66214;51.302;17.068;2023-12-04T06:50:08;-7.25;88.45
77218;DHT22;66214;51.302;17.068;2023-12-04T06:52:37;-7.23;88.58
77218;DHT22;66214;51.302;17.068;2023-12-04T06:55:05;-7.21;88.57
77218;DHT22;66214;51.302;17.068;2023-12-04T06:57:34;-7.17;88.67
77218;DHT22;66214;51.302;17.068;2023-12-04T07:00:02;-7.14;88.64
77218;DHT22;66214;51.302;17.068;2023-12-04T08:03:40;-5.78;88.54
77218;DHT22;66214;51.302;17.068;2023-12-04T08:06:08;-5.72;88.20
77218;DHT22;66214;51.302;17.068;2023-12-04T08:08:36;-5.67;87.90
77218;DHT22;66214;51.302;17.068;2023-12-04T08:11:04;-5.62;87.65
77218;DHT22;66214;51.302;17.068;2023-12-04T08:13:33;-5.58;87.39
77218;DHT22;66214;51.302;17.068;2023-12-04T08:16:01;-5.54;87.13
77218;DHT22;66214;51.302;17.068;2023-12-04T08:18:29;-5.48;87.06
77218;DHT22;66214;51.302;17.068;2023-12-04T08:21:00;-5.43;87.03
77218;DHT22;66214;51.302;17.068;2023-12-04T08:23:28;-5.36;87.04
77218;DHT22;66214;51.302;17.068;2023-12-04T08:25:56;-5.28;87.12
77218;DHT22;66214;51.302;17.068;2023-12-04T08:28:25;-5.20;86.95
77218;DHT22;66214;51.302;17.068;2023-12-04T08:30:53;-5.14;86.76
77218;DHT22;66214;51.302;17.068;2023-12-04T08:33:22;-5.09;86.42
77218;DHT22;66214;51.302;17.068;2023-12-04T08:35:50;-5.02;86.23
77218;DHT22;66214;51.302;17.068;2023-12-04T08:38:18;-4.98;86.01
77218;DHT22;66214;51.302;17.068;2023-12-04T08:40:46;-4.95;85.86
77218;DHT22;66214;51.302;17.068;2023-12-04T08:43:15;-4.89;85.99
77218;DHT22;66214;51.302;17.068;2023-12-04T08:45:43;-4.80;86.08
77218;DHT22;66214;51.302;17.068;2023-12-04T08:48:12;-4.72;85.96
77218;DHT22;66214;51.302;17.068;2023-12-04T08:50:41;-4.62;85.87
77218;DHT22;66214;51.302;17.068;2023-12-04T08:53:11;-4.53;85.70
77218;DHT22;66214;51.302;17.068;2023-12-04T08:59:09;-4.34;85.30
77218;DHT22;66214;51.302;17.068;2023-12-04T09:01:38;-4.25;85.21
77218;DHT22;66214;51.302;17.068;2023-12-04T09:04:07;-4.14;85.04
77218;DHT22;66214;51.302;17.068;2023-12-04T09:06:37;-4.00;85.06
77218;DHT22;66214;51.302;17.068;2023-12-04T09:09:06;-3.89;85.06
77218;DHT22;66214;51.302;17.068;2023-12-04T09:11:37;-3.76;85.01
77218;DHT22;66214;51.302;17.068;2023-12-04T09:14:11;-3.61;85.08
77218;DHT22;66214;51.302;17.068;2023-12-04T09:16:39;-3.47;84.96
77218;DHT22;66214;51.302;17.068;2023-12-04T09:19:07;-3.35;84.73
77218;DHT22;66214;51.302;17.068;2023-12-04T09:21:36;-3.27;84.42
77218;DHT22;66214;51.302;17.068;2023-12-04T09:24:05;-3.20;84.15
77218;DHT22;66214;51.302;17.068;2023-12-04T09:26:35;-3.14;84.06
77218;DHT22;66214;51.302;17.068;2023-12-04T09:29:03;-3.07;83.96
77218;DHT22;66214;51.302;17.068;2023-12-04T09:31:32;-2.97;84.08
77218;DHT22;66214;51.302;17.068;2023-12-04T09:34:00;-2.84;84.11
77218;DHT22;66214;51.302;17.068;2023-12-04T09:36:27;-2.74;83.94
77218;DHT22;66214;51.302;17.068;2023-12-04T09:38:57;-2.61;83.80
77218;DHT22;66214;51.302;17.068;2023-12-04T09:41:25;-2.56;83.41
77218;DHT22;66214;51.302;17.068;2023-12-04T09:43:54;-2.52;83.07
77218;DHT22;66214;51.302;17.068;2023-12-04T09:46:22;-2.45;82.83
77218;DHT22;66214;51.302;17.068;2023-12-04T09:48:51;-2.42;82.36
77218;DHT22;66214;51.302;17.068;2023-12-04T09:51:20;-2.38;82.50
77218;DHT22;66214;51.302;17.068;2023-12-04T09:53:50;-2.36;82.37
77218;DHT22;66214;51.302;17.068;2023-12-04T09:56:19;-2.33;82.34
77218;DHT22;66214;51.302;17.068;2023-12-04T09:58:52;-2.29;82.26
77218;DHT22;66214;51.302;17.068;2023-12-04T10:01:28;-2.20;82.17
77218;DHT22;66214;51.302;17.068;2023-12-04T10:04:00;-2.07;82.05
77218;DHT22;66214;51.302;17.068;2023-12-04T10:06:32;-1.85;81.92
77218;DHT22;66214;51.302;17.068;2023-12-04T10:09:01;-1.45;81.57
77218;DHT22;66214;51.302;17.068;2023-12-04T10:11:31;-0.93;80.98
77218;DHT22;66214;51.302;17.068;2023-12-04T10:13:59;-0.43;80.74
77218;DHT22;66214;51.302;17.068;2023-12-04T10:16:34;-0.04;80.76
77218;DHT22;66214;51.302;17.068;2023-12-04T10:19:17;0.25;80.57
77218;DHT22;66214;51.302;17.068;2023-12-04T10:22:02;0.67;80.12
77218;DHT22;66214;51.302;17.068;2023-12-04T10:24:32;1.08;79.36
77218;DHT22;66214;51.302;17.068;2023-12-04T10:27:05;1.47;78.13
77218;DHT22;66214;51.302;17.068;2023-12-04T10:29:41;1.91;77.64
77218;DHT22;66214;51.302;17.068;2023-12-04T10:32:18;2.43;77.32
77218;DHT22;66214;51.302;17.068;2023-12-04T10:34:49;2.97;76.61
77218;DHT22;66214;51.302;17.068;2023-12-04T10:37:18;3.46;75.17
77218;DHT22;66214;51.302;17.068;2023-12-04T10:39:50;3.75;74.35
77218;DHT22;66214;51.302;17.068;2023-12-04T10:44:56;4.27;73.23
77218;DHT22;66214;51.302;17.068;2023-12-04T10:47:25;4.52;72.54
77218;DHT22;66214;51.302;17.068;2023-12-04T10:49:56;4.61;71.69
77218;DHT22;66214;51.302;17.068;2023-12-04T10:52:24;4.54;71.22
77218;DHT22;66214;51.302;17.068;2023-12-04T10:54:53;4.17;70.74
77218;DHT22;66214;51.302;17.068;2023-12-04T10:57:22;3.44;70.74
77218;DHT22;66214;51.302;17.068;2023-12-04T10:59:56;2.75;70.90
77218;DHT22;66214;51.302;17.068;2023-12-04T11:03:59;1.94;71.76
77218;DHT22;66214;51.302;17.068;2023-12-04T11:06:35;1.60;71.86
77218;DHT22;66214;51.302;17.068;2023-12-04T11:09:07;1.27;71.32
77218;DHT22;66214;51.302;17.068;2023-12-04T11:11:38;0.97;71.38
77218;DHT22;66214;51.302;17.068;2023-12-04T11:14:12;0.71;71.47
77218;DHT22;66214;51.302;17.068;2023-12-04T11:16:51;0.48;71.81
77218;DHT22;66214;51.302;17.068;2023-12-04T11:19:35;0.34;72.55
77218;DHT22;66214;51.302;17.068;2023-12-04T11:22:23;0.27;73.02
77218;DHT22;66214;51.302;17.068;2023-12-04T11:24:53;0.23;73.02
77218;DHT22;66214;51.302;17.068;2023-12-04T11:27:23;0.17;73.00
77218;DHT22;66214;51.302;17.068;2023-12-04T11:29:51;0.09;72.89
77218;DHT22;66214;51.302;17.068;2023-12-04T11:32:20;0.04;72.95
77218;DHT22;66214;51.302;17.068;2023-12-04T11:34:55;0.02;72.98
77218;DHT22;66214;51.302;17.068;2023-12-04T11:37:24;0.01;72.90
77218;DHT22;66214;51.302;17.068;2023-12-04T11:39:53;-0.02;72.73
77218;DHT22;66214;51.302;17.068;2023-12-04T11:42:22;-0.07;72.74
77218;DHT22;66214;51.302;17.068;2023-12-04T11:44:57;-0.11;72.69
77218;DHT22;66214;51.302;17.068;2023-12-04T11:47:28;-0.18;72.61
77218;DHT22;66214;51.302;17.068;2023-12-04T11:49:57;-0.23;73.24
77218;DHT22;66214;51.302;17.068;2023-12-04T11:52:34;-0.21;73.84
77218;DHT22;66214;51.302;17.068;2023-12-04T11:55:05;-0.22;74.07
77218;DHT22;66214;51.302;17.068;2023-12-04T11:57:37;-0.27;73.88
77218;DHT22;66214;51.302;17.068;2023-12-04T12:00:19;-0.33;73.68
77218;DHT22;66214;51.302;17.068;2023-12-04T12:05:21;-0.32;73.63
77218;DHT22;66214;51.302;17.068;2023-12-04T12:07:50;-0.37;73.55
77218;DHT22;66214;51.302;17.068;2023-12-04T12:10:19;-0.44;73.44
77218;DHT22;66214;51.302;17.068;2023-12-04T12:12:48;-0.57;73.45
77218;DHT22;66214;51.302;17.068;2023-12-04T12:15:16;-0.67;73.68
77218;DHT22;66214;51.302;17.068;2023-12-04T12:17:45;-0.70;74.20
77218;DHT22;66214;51.302;17.068;2023-12-04T12:20:13;-0.65;74.70
77218;DHT22;66214;51.302;17.068;2023-12-04T12:22:42;-0.61;74.99
77218;DHT22;66214;51.302;17.068;2023-12-04T12:25:13;-0.58;74.97
77218;DHT22;66214;51.302;17.068;2023-12-04T12:27:43;-0.60;74.52
77218;DHT22;66214;51.302;17.068;2023-12-04T12:30:11;-0.72;74.08
77218;DHT22;66214;51.302;17.068;2023-12-04T12:32:40;-0.78;74.11
77218;DHT22;66214;51.302;17.068;2023-12-04T12:35:09;-0.78;74.10
77218;DHT22;66214;51.302;17.068;2023-12-04T12:37:38;-0.81;74.02
77218;DHT22;66214;51.302;17.068;2023-12-04T12:40:07;-0.88;73.77
77218;DHT22;66214;51.302;17.068;2023-12-04T12:42:37;-0.96;73.92
77218;DHT22;66214;51.302;17.068;2023-12-04T12:45:09;-0.98;74.19
77218;DHT22;66214;51.302;17.068;2023-12-04T12:47:42;-0.99;74.55
77218;DHT22;66214;51.302;17.068;2023-12-04T12:50:11;-0.99;74.95
77218;DHT22;66214;51.302;17.068;2023-12-04T12:52:40;-1.01;75.11
77218;DHT22;66214;51.302;17.068;2023-12-04T12:55:10;-1.04;75.10
77218;DHT22;66214;51.302;17.068;2023-12-04T12:57:38;-1.07;74.95
77218;DHT22;66214;51.302;17.068;2023-12-04T13:00:06;-1.13;74.76
77218;DHT22;66214;51.302;17.068;2023-12-04T13:02:36;-1.22;74.72
77218;DHT22;66214;51.302;17.068;2023-12-04T13:05:05;-1.28;74.73
77218;DHT22;66214;51.302;17.068;2023-12-04T13:07:35;-1.32;74.82
77218;DHT22;66214;51.302;17.068;2023-12-04T13:10:03;-1.33;74.87
77218;DHT22;66214;51.302;17.068;2023-12-04T13:12:32;-1.40;74.84
77218;DHT22;66214;51.302;17.068;2023-12-04T13:15:01;-1.51;75.19
77218;DHT22;66214;51.302;17.068;2023-12-04T13:17:31;-1.59;75.61
77218;DHT22;66214;51.302;17.068;2023-12-04T13:19:59;-1.66;76.05
77218;DHT22;66214;51.302;17.068;2023-12-04T13:22:27;-1.74;76.15
77218;DHT22;66214;51.302;17.068;2023-12-04T13:24:55;-1.81;76.16
77218;DHT22;66214;51.302;17.068;2023-12-04T13:27:23;-1.85;76.09
77218;DHT22;66214;51.302;17.068;2023-12-04T13:29:51;-1.84;76.10
77218;DHT22;66214;51.302;17.068;2023-12-04T13:32:20;-1.88;75.95
77218;DHT22;66214;51.302;17.068;2023-12-04T13:34:48;-1.95;75.95
77218;DHT22;66214;51.302;17.068;2023-12-04T13:37:16;-2.04;76.03
77218;DHT22;66214;51.302;17.068;2023-12-04T13:39:45;-2.10;76.24
77218;DHT22;66214;51.302;17.068;2023-12-04T13:42:16;-2.09;76.54
77218;DHT22;66214;51.302;17.068;2023-12-04T13:45:03;-2.08;76.73
77218;DHT22;66214;51.302;17.068;2023-12-04T13:47:32;-2.08;76.97
77218;DHT22;66214;51.302;17.068;2023-12-04T13:50:02;-2.10;76.95
77218;DHT22;66214;51.302;17.068;2023-12-04T13:52:31;-2.12;76.86
77218;DHT22;66214;51.302;17.068;2023-12-04T13:55:01;-2.13;76.74
77218;DHT22;66214;51.302;17.068;2023-12-04T13:57:44;-2.18;76.66
77218;DHT22;66214;51.302;17.068;2023-12-04T14:03:41;-2.34;76.74
77218;DHT22;66214;51.302;17.068;2023-12-04T14:06:13;-2.38;76.55
77218;DHT22;66214;51.302;17.068;2023-12-04T14:08:43;-2.43;76.73
77218;DHT22;66214;51.302;17.068;2023-12-04T14:11:12;-2.43;77.12
77218;DHT22;66214;51.302;17.068;2023-12-04T14:13:42;-2.46;77.43
77218;DHT22;66214;51.302;17.068;2023-12-04T14:16:10;-2.47;77.75
77218;DHT22;66214;51.302;17.068;2023-12-04T14:18:39;-2.48;78.01
77218;DHT22;66214;51.302;17.068;2023-12-04T14:21:08;-2.49;78.03
77218;DHT22;66214;51.302;17.068;2023-12-04T14:23:37;-2.51;77.88
77218;DHT22;66214;51.302;17.068;2023-12-04T14:26:05;-2.52;77.73
77218;DHT22;66214;51.302;17.068;2023-12-04T14:28:33;-2.55;77.63
77218;DHT22;66214;51.302;17.068;2023-12-04T14:31:02;-2.60;77.81
77218;DHT22;66214;51.302;17.068;2023-12-04T14:33:30;-2.67;77.90
77218;DHT22;66214;51.302;17.068;2023-12-04T14:35:58;-2.73;78.14
77218;DHT22;66214;51.302;17.068;2023-12-04T14:38:26;-2.78;78.41
77218;DHT22;66214;51.302;17.068;2023-12-04T14:40:55;-2.80;78.62
77218;DHT22;66214;51.302;17.068;2023-12-04T14:43:23;-2.84;78.95
77218;DHT22;66214;51.302;17.068;2023-12-04T14:45:52;-2.86;79.15
77218;DHT22;66214;51.302;17.068;2023-12-04T14:48:20;-2.89;79.12
77218;DHT22;66214;51.302;17.068;2023-12-04T14:50:49;-2.93;79.12
77218;DHT22;66214;51.302;17.068;2023-12-04T14:53:16;-2.99;79.12
77218;DHT22;66214;51.302;17.068;2023-12-04T14:56:05;-3.04;79.10
77218;DHT22;66214;51.302;17.068;2023-12-04T14:58:53;-3.08;79.10
77218;DHT22;66214;51.302;17.068;2023-12-04T15:01:33;-3.09;79.16
77218;DHT22;66214;51.302;17.068;2023-12-04T15:04:36;-3.08;79.30
77218;DHT22;66214;51.302;17.068;2023-12-04T15:07:23;-3.08;79.41
77218;DHT22;66214;51.302;17.068;2023-12-04T15:10:22;-3.07;79.67
77218;DHT22;66214;51.302;17.068;2023-12-04T15:13:13;-3.07;79.80
77218;DHT22;66214;51.302;17.068;2023-12-04T15:15:41;-3.06;79.69
77218;DHT22;66214;51.302;17.068;2023-12-04T15:18:28;-3.08;79.56
77218;DHT22;66214;51.302;17.068;2023-12-04T15:21:04;-3.09;79.46
77218;DHT22;66214;51.302;17.068;2023-12-04T15:23:34;-3.12;79.34
77218;DHT22;66214;51.302;17.068;2023-12-04T15:26:03;-3.15;79.34
77218;DHT22;66214;51.302;17.068;2023-12-04T15:28:32;-3.16;79.35
77218;DHT22;66214;51.302;17.068;2023-12-04T15:31:00;-3.16;79.49
77218;DHT22;66214;51.302;17.068;2023-12-04T15:33:29;-3.15;79.77
77218;DHT22;66214;51.302;17.068;2023-12-04T15:35:58;-3.15;79.99
77218;DHT22;66214;51.302;17.068;2023-12-04T15:38:26;-3.14;80.10
77218;DHT22;66214;51.302;17.068;2023-12-04T15:40:54;-3.15;79.99
77218;DHT22;66214;51.302;17.068;2023-12-04T15:43:22;-3.15;79.98
77218;DHT22;66214;51.302;17.068;2023-12-04T15:45:50;-3.17;79.98
77218;DHT22;66214;51.302;17.068;2023-12-04T15:48:18;-3.17;79.94
77218;DHT22;66214;51.302;17.068;2023-12-04T15:50:46;-3.19;79.91
77218;DHT22;66214;51.302;17.068;2023-12-04T15:53:14;-3.18;79.90
77218;DHT22;66214;51.302;17.068;2023-12-04T15:55:42;-3.15;80.15
77218;DHT22;66214;51.302;17.068;2023-12-04T15:58:10;-3.13;80.37
77218;DHT22;66214;51.302;17.068;2023-12-04T16:00:38;-3.11;80.54
77218;DHT22;66214;51.302;17.068;2023-12-04T16:03:06;-3.08;80.85
77218;DHT22;66214;51.302;17.068;2023-12-04T16:05:34;-3.06;80.93
77218;DHT22;66214;51.302;17.068;2023-12-04T16:08:02;-3.04;80.92
77218;DHT22;66214;51.302;17.068;2023-12-04T16:10:31;-3.03;80.70
77218;DHT22;66214;51.302;17.068;2023-12-04T16:12:59;-3.04;80.67
77218;DHT22;66214;51.302;17.068;2023-12-04T16:15:27;-3.05;80.56
77218;DHT22;66214;51.302;17.068;2023-12-04T16:17:55;-3.07;80.53
77218;DHT22;66214;51.302;17.068;2023-12-04T16:20:23;-3.07;80.69
77218;DHT22;66214;51.302;17.068;2023-12-04T16:22:51;-3.07;80.82
77218;DHT22;66214;51.302;17.068;2023-12-04T16:25:19;-3.04;81.16
77218;DHT22;66214;51.302;17.068;2023-12-04T16:27:48;-3.03;81.35
77218;DHT22;66214;51.302;17.068;2023-12-04T16:30:18;-3.00;81.45
77218;DHT22;66214;51.302;17.068;2023-12-04T16:32:46;-3.00;81.32
77218;DHT22;66214;51.302;17.068;2023-12-04T16:35:15;-2.99;81.24
77218;DHT22;66214;51.302;17.068;2023-12-04T16:37:43;-3.01;81.20
77218;DHT22;66214;51.302;17.068;2023-12-04T16:40:11;-3.02;81.13
77218;DHT22;66214;51.302;17.068;2023-12-04T16:42:39;-3.03;81.00
77218;DHT22;66214;51.302;17.068;2023-12-04T16:45:08;-3.04;81.03
77218;DHT22;66214;51.302;17.068;2023-12-04T17:03:40;-2.96;82.19
77218;DHT22;66214;51.302;17.068;2023-12-04T17:06:08;-2.98;81.92
77218;DHT22;66214;51.302;17.068;2023-12-04T17:08:37;-3.01;81.89
77218;DHT22;66214;51.302;17.068;2023-12-04T17:11:05;-3.03;81.92
77218;DHT22;66214;51.302;17.068;2023-12-04T17:13:34;-3.03;82.16
77218;DHT22;66214;51.302;17.068;2023-12-04T17:16:03;-3.04;82.25
77218;DHT22;66214;51.302;17.068;2023-12-04T17:18:36;-3.06;82.29
77218;DHT22;66214;51.302;17.068;2023-12-04T17:21:04;-3.07;82.24
77218;DHT22;66214;51.302;17.068;2023-12-04T17:23:32;-3.07;82.09
77218;DHT22;66214;51.302;17.068;2023-12-04T17:26:01;-3.09;81.96
77218;DHT22;66214;51.302;17.068;2023-12-04T17:28:29;-3.12;81.86
77218;DHT22;66214;51.302;17.068;2023-12-04T17:30:57;-3.14;81.85
77218;DHT22;66214;51.302;17.068;2023-12-04T17:33:25;-3.16;81.72
77218;DHT22;66214;51.302;17.068;2023-12-04T17:35:53;-3.18;81.65
77218;DHT22;66214;51.302;17.068;2023-12-04T17:38:21;-3.19;81.96
77218;DHT22;66214;51.302;17.068;2023-12-04T17:40:53;-3.20;82.15
77218;DHT22;66214;51.302;17.068;2023-12-04T17:43:22;-3.20;82.26
77218;DHT22;66214;51.302;17.068;2023-12-04T17:45:51;-3.18;82.45
77218;DHT22;66214;51.302;17.068;2023-12-04T17:48:19;-3.18;82.54
77218;DHT22;66214;51.302;17.068;2023-12-04T17:50:47;-3.18;82.50
77218;DHT22;66214;51.302;17.068;2023-12-04T17:53:15;-3.18;82.40
77218;DHT22;66214;51.302;17.068;2023-12-04T17:55:43;-3.19;82.25
77218;DHT22;66214;51.302;17.068;2023-12-04T17:58:11;-3.21;82.25
77218;DHT22;66214;51.302;17.068;2023-12-04T18:00:42;-3.22;82.24
77218;DHT22;66214;51.302;17.068;2023-12-04T18:03:11;-3.21;82.38
77218;DHT22;66214;51.302;17.068;2023-12-04T18:05:41;-3.20;82.47
77218;DHT22;66214;51.302;17.068;2023-12-04T18:08:10;-3.20;82.64
77218;DHT22;66214;51.302;17.068;2023-12-04T18:10:38;-3.18;82.86
77218;DHT22;66214;51.302;17.068;2023-12-04T18:13:06;-3.16;82.91
77218;DHT22;66214;51.302;17.068;2023-12-04T18:15:34;-3.16;82.95
77218;DHT22;66214;51.302;17.068;2023-12-04T18:18:02;-3.16;82.92
77218;DHT22;66214;51.302;17.068;2023-12-04T18:20:30;-3.19;82.83
77218;DHT22;66214;51.302;17.068;2023-12-04T18:22:58;-3.21;82.69
77218;DHT22;66214;51.302;17.068;2023-12-04T18:25:26;-3.22;82.62
77218;DHT22;66214;51.302;17.068;2023-12-04T18:27:55;-3.23;82.76
77218;DHT22;66214;51.302;17.068;2023-12-04T18:30:26;-3.25;82.98
77218;DHT22;66214;51.302;17.068;2023-12-04T18:32:55;-3.24;83.13
77218;DHT22;66214;51.302;17.068;2023-12-04T18:35:24;-3.24;83.30
77218;DHT22;66214;51.302;17.068;2023-12-04T18:38:06;-3.23;83.44
77218;DHT22;66214;51.302;17.068;2023-12-04T18:40:38;-3.21;83.42
77218;DHT22;66214;51.302;17.068;2023-12-04T18:43:06;-3.22;83.37
77218;DHT22;66214;51.302;17.068;2023-12-04T18:45:35;-3.22;83.38
77218;DHT22;66214;51.302;17.068;2023-12-04T18:48:04;-3.20;83.36
77218;DHT22;66214;51.302;17.068;2023-12-04T18:50:35;-3.18;83.52
77218;DHT22;66214;51.302;17.068;2023-12-04T18:53:07;-3.17;83.56
77218;DHT22;66214;51.302;17.068;2023-12-04T18:55:35;-3.15;83.61
77218;DHT22;66214;51.302;17.068;2023-12-04T18:58:03;-3.14;83.48
77218;DHT22;66214;51.302;17.068;2023-12-04T19:00:31;-3.12;83.38
77218;DHT22;66214;51.302;17.068;2023-12-04T19:02:59;-3.12;83.30
77218;DHT22;66214;51.302;17.068;2023-12-04T19:05:28;-3.14;83.19
77218;DHT22;66214;51.302;17.068;2023-12-04T19:07:58;-3.15;83.19
77218;DHT22;66214;51.302;17.068;2023-12-04T19:10:25;-3.12;83.21
77218;DHT22;66214;51.302;17.068;2023-12-04T19:12:53;-3.09;83.34
77218;DHT22;66214;51.302;17.068;2023-12-04T19:15:21;-3.08;83.51
77218;DHT22;66214;51.302;17.068;2023-12-04T19:17:50;-3.05;83.56
77218;DHT22;66214;51.302;17.068;2023-12-04T19:20:18;-3.04;83.42
77218;DHT22;66214;51.302;17.068;2023-12-04T19:22:46;-3.04;83.34
77218;DHT22;66214;51.302;17.068;2023-12-04T19:25:14;-3.05;83.34
77218;DHT22;66214;51.302;17.068;2023-12-04T19:27:42;-3.03;83.30
77218;DHT22;66214;51.302;17.068;2023-12-04T19:30:11;-2.99;83.45
77218;DHT22;66214;51.302;17.068;2023-12-04T19:32:39;-2.96;83.52
77218;DHT22;66214;51.302;17.068;2023-12-04T19:35:07;-2.94;83.49
77218;DHT22;66214;51.302;17.068;2023-12-04T19:37:36;-2.90;83.43
77218;DHT22;66214;51.302;17.068;2023-12-04T19:40:05;-2.88;83.28
77218;DHT22;66214;51.302;17.068;2023-12-04T19:45:54;-2.85;83.36
77218;DHT22;66214;51.302;17.068;2023-12-04T19:48:22;-2.80;83.48
77218;DHT22;66214;51.302;17.068;2023-12-04T19:50:50;-2.77;83.44
77218;DHT22;66214;51.302;17.068;2023-12-04T19:53:18;-2.76;83.52
77218;DHT22;66214;51.302;17.068;2023-12-04T19:55:46;-2.76;83.36